createdAt,value
2023-05-18T00:01:03.501Z,102520.81
2023-05-18T00:04:26.079Z,102529.81
2023-05-18T00:07:49.568Z,102534.41
2023-05-18T00:11:10.985Z,102529.22
2023-05-18T00:14:32.476Z,102529.63
2023-05-18T00:17:54.142Z,102535.88
2023-05-18T00:21:16.374Z,102539.66
2023-05-18T00:24:39.120Z,102546.88
2023-05-18T00:28:01.057Z,102539.19
2023-05-18T00:31:22.930Z,102541.88
2023-05-18T00:34:44.574Z,102556.06
2023-05-18T00:38:06.390Z,102550.97
2023-05-18T00:41:30.172Z,102550.19
2023-05-18T00:44:51.531Z,102546.72
2023-05-18T00:48:13.415Z,102553.19
2023-05-18T00:51:35.939Z,102555.97
2023-05-18T00:54:58.378Z,102557.03
2023-05-18T00:58:22.214Z,102550.19
2023-05-18T01:01:46.244Z,102552.97
2023-05-18T01:05:08.100Z,102559.25
2023-05-18T01:08:29.863Z,102561.13
2023-05-18T01:12:01.498Z,102561.41
2023-05-18T01:15:32.953Z,102565.25
2023-05-18T01:19:05.590Z,102563.63
2023-05-18T01:22:38.773Z,102562.88
2023-05-18T01:26:24.647Z,102575.44
2023-05-18T01:29:47.198Z,102574.66
2023-05-18T01:33:10.328Z,102578.34
2023-05-18T01:36:32.557Z,102577.66
2023-05-18T01:39:54.475Z,102578.63
2023-05-18T01:43:20.144Z,102577.81
2023-05-18T01:46:47.946Z,102576.06
2023-05-18T01:50:15.229Z,102575.41
2023-05-18T01:53:43.480Z,102580.75
2023-05-18T01:57:08.060Z,102570.25
2023-05-18T02:00:31.393Z,102576.44
2023-05-18T02:03:53.583Z,102576.50
2023-05-18T02:07:15.660Z,102574.84
2023-05-18T02:10:37.626Z,102574.78
2023-05-18T02:14:02.457Z,102578.34
2023-05-18T02:17:26.708Z,102582.94
2023-05-18T02:20:49.064Z,102587.44
2023-05-18T02:24:11.819Z,102580.53
2023-05-18T02:27:35.137Z,102583.31
2023-05-18T02:31:05.904Z,102579.97
2023-05-18T02:34:32.963Z,102579.88
2023-05-18T02:37:55.908Z,102582.53
2023-05-18T02:41:19.200Z,102586.28
2023-05-18T02:44:42.087Z,102588.13
2023-05-18T02:48:07.538Z,102587.25
2023-05-18T02:51:31.389Z,102592.66
2023-05-18T02:54:54.857Z,102586.56
2023-05-18T02:58:27.060Z,102584.03
2023-05-18T03:02:01.000Z,102593.81
2023-05-18T03:05:23.794Z,102597.34
2023-05-18T03:08:49.019Z,102598.25
2023-05-18T03:12:11.397Z,102600.09
2023-05-18T03:15:32.998Z,102605.50
2023-05-18T03:18:55.209Z,102610.72
2023-05-18T03:22:16.996Z,102614.16
2023-05-18T03:25:40.756Z,102618.53
2023-05-18T03:29:02.334Z,102614.13
2023-05-18T03:32:24.724Z,102607.00
2023-05-18T03:35:48.477Z,102609.56
2023-05-18T03:39:10.970Z,102614.00
2023-05-18T03:42:34.792Z,102620.22
2023-05-18T03:45:57.079Z,102611.28
2023-05-18T03:49:19.078Z,102623.59
2023-05-18T03:52:41.583Z,102621.78
2023-05-18T03:56:03.374Z,102622.66
2023-05-18T03:59:26.814Z,102634.97
2023-05-18T04:02:51.941Z,102628.50
2023-05-18T04:06:17.875Z,102638.84
2023-05-18T04:09:40.647Z,102636.09
2023-05-18T04:13:02.570Z,102642.09
2023-05-18T04:16:25.538Z,102647.16
2023-05-18T04:19:47.012Z,102643.41
2023-05-18T04:23:10.083Z,102641.47
2023-05-18T04:26:36.685Z,102649.25
2023-05-18T04:29:58.679Z,102645.56
2023-05-18T04:33:22.295Z,102652.00
2023-05-18T04:36:44.360Z,102655.34
2023-05-18T04:40:08.390Z,102651.53
2023-05-18T04:43:31.393Z,102652.06
2023-05-18T04:46:53.713Z,102657.72
2023-05-18T04:50:18.292Z,102651.66
2023-05-18T04:53:39.807Z,102660.31
2023-05-18T04:57:03.509Z,102660.94
2023-05-18T05:00:26.768Z,102663.25
2023-05-18T05:03:49.314Z,102666.59
2023-05-18T05:07:12.653Z,102658.88
2023-05-18T05:10:38.490Z,102670.81
2023-05-18T05:14:00.054Z,102668.44
2023-05-18T05:17:21.861Z,102671.38
2023-05-18T05:20:43.858Z,102670.81
2023-05-18T05:24:08.507Z,102665.03
2023-05-18T05:27:31.127Z,102669.94
2023-05-18T05:30:52.708Z,102670.28
2023-05-18T05:34:15.214Z,102678.72
2023-05-18T05:37:37.485Z,102669.47
2023-05-18T05:41:01.399Z,102680.06
2023-05-18T05:44:23.022Z,102681.47
2023-05-18T05:47:44.882Z,102685.59
2023-05-18T05:51:07.853Z,102693.91
2023-05-18T05:54:29.530Z,102688.38
2023-05-18T05:57:52.622Z,102692.34
2023-05-18T06:01:14.701Z,102697.19
2023-05-18T06:04:36.577Z,102698.63
2023-05-18T06:07:58.530Z,102696.19
2023-05-18T06:11:20.039Z,102696.47
2023-05-18T06:14:43.047Z,102697.75
2023-05-18T06:18:05.320Z,102698.91
2023-05-18T06:21:27.803Z,102696.59
2023-05-18T06:24:50.558Z,102701.44
2023-05-18T06:28:31.549Z,102700.00
2023-05-18T06:32:15.428Z,102708.22
2023-05-18T06:35:39.514Z,102708.69
2023-05-18T06:39:01.407Z,102715.28
2023-05-18T06:42:23.952Z,102708.47
2023-05-18T06:45:55.562Z,102704.44
2023-05-18T06:49:28.192Z,102702.06
2023-05-18T06:52:50.011Z,102710.81
2023-05-18T06:56:13.239Z,102706.66
2023-05-18T06:59:36.566Z,102710.59
2023-05-18T07:02:59.436Z,102709.06
2023-05-18T07:06:23.112Z,102706.84
2023-05-18T07:09:45.728Z,102715.13
2023-05-18T07:13:07.457Z,102711.28
2023-05-18T07:16:29.035Z,102704.47
2023-05-18T07:19:50.871Z,102697.84
2023-05-18T07:23:14.385Z,102697.09
2023-05-18T07:26:35.975Z,102697.38
2023-05-18T07:29:57.913Z,102692.25
2023-05-18T07:33:19.424Z,102695.69
2023-05-18T07:36:41.559Z,102691.47
2023-05-18T07:40:05.891Z,102692.56
2023-05-18T07:43:27.760Z,102690.31
2023-05-18T07:46:49.799Z,102695.22
2023-05-18T07:50:12.306Z,102693.31
2023-05-18T07:53:34.485Z,102694.72
2023-05-18T07:56:59.667Z,102702.38
2023-05-18T08:00:22.490Z,102702.09
2023-05-18T08:03:44.717Z,102699.06
2023-05-18T08:07:06.468Z,102701.16
2023-05-18T08:10:28.345Z,102697.78
2023-05-18T08:13:51.753Z,102701.47
2023-05-18T08:17:13.569Z,102704.50
2023-05-18T08:20:35.339Z,102708.22
2023-05-18T08:23:57.481Z,102703.91
2023-05-18T08:27:20.000Z,102709.66
2023-05-18T08:30:42.928Z,102706.53
2023-05-18T08:34:05.195Z,102707.63
2023-05-18T08:37:29.562Z,102699.06
2023-05-18T08:40:57.201Z,102702.34
2023-05-18T08:44:23.404Z,102701.03
2023-05-18T08:47:46.900Z,102708.19
2023-05-18T08:51:09.992Z,102710.91
2023-05-18T08:54:32.163Z,102699.56
2023-05-18T08:57:57.431Z,102701.66
2023-05-18T09:01:19.028Z,102702.28
2023-05-18T09:04:45.226Z,102699.06
2023-05-18T09:08:08.734Z,102700.28
2023-05-18T09:11:31.513Z,102696.28
2023-05-18T09:14:54.950Z,102696.63
2023-05-18T09:18:16.849Z,102697.03
2023-05-18T09:21:40.194Z,102688.00
2023-05-18T09:25:02.156Z,102686.03
2023-05-18T09:28:28.283Z,102683.31
2023-05-18T09:31:50.490Z,102683.03
2023-05-18T09:35:14.088Z,102682.31
2023-05-18T09:38:40.549Z,102691.78
2023-05-18T09:42:04.683Z,102682.78
2023-05-18T09:45:28.494Z,102681.97
2023-05-18T09:48:52.907Z,102668.31
2023-05-18T09:52:14.880Z,102662.97
2023-05-18T09:55:39.992Z,102666.38
2023-05-18T09:59:09.798Z,102670.56
2023-05-18T10:02:32.224Z,102678.81
2023-05-18T10:05:53.776Z,102681.03
2023-05-18T10:09:16.954Z,102669.47
2023-05-18T10:12:40.743Z,102676.84
2023-05-18T10:16:04.744Z,102670.09
2023-05-18T10:19:27.105Z,102671.88
2023-05-18T10:22:50.326Z,102659.22
2023-05-18T10:33:45.283Z,102658.25
2023-05-18T10:37:11.051Z,102649.50
2023-05-18T10:40:36.005Z,102648.53
2023-05-18T10:44:03.745Z,102643.28
2023-05-18T10:47:26.470Z,102632.78
2023-05-18T10:50:51.779Z,102636.88
2023-05-18T10:54:15.140Z,102647.38
2023-05-18T10:57:41.142Z,102643.72
2023-05-18T11:01:06.508Z,102629.91
2023-05-18T11:04:29.805Z,102632.88
2023-05-18T11:08:01.470Z,102638.03
2023-05-18T11:11:26.206Z,102636.84
2023-05-18T11:14:52.326Z,102628.19
2023-05-18T11:18:14.936Z,102637.50
2023-05-18T11:21:54.136Z,102631.47
2023-05-18T11:32:52.692Z,102633.66
2023-05-18T11:36:15.413Z,102633.63
2023-05-18T11:39:44.926Z,102630.94
2023-05-18T11:43:21.227Z,102640.34
2023-05-18T11:46:53.199Z,102618.28
2023-05-18T11:50:18.868Z,102612.97
2023-05-18T11:53:42.412Z,102619.47
2023-05-18T11:57:04.254Z,102617.53
2023-05-18T12:00:26.630Z,102615.63
2023-05-18T12:03:50.590Z,102620.94
2023-05-18T12:07:13.974Z,102620.69
2023-05-18T12:10:37.684Z,102626.13
2023-05-18T12:17:46.015Z,102610.84
2023-05-18T12:21:08.245Z,102616.63
2023-05-18T12:24:31.560Z,102624.41
2023-05-18T12:27:54.429Z,102609.88
2023-05-18T12:31:17.012Z,102609.44
2023-05-18T12:34:40.989Z,102614.81
2023-05-18T12:38:03.147Z,102618.47
2023-05-18T12:41:27.790Z,102612.53
2023-05-18T12:44:50.898Z,102621.72
2023-05-18T12:48:15.110Z,102612.47
2023-05-18T12:51:38.126Z,102608.81
2023-05-18T12:55:00.931Z,102606.94
2023-05-18T12:58:25.483Z,102596.66
2023-05-18T13:01:47.777Z,102596.66
2023-05-18T13:05:11.675Z,102599.97
2023-05-18T13:08:33.703Z,102594.69
2023-05-18T13:12:07.360Z,102587.25
2023-05-18T13:16:19.482Z,102590.91
2023-05-18T13:19:42.723Z,102586.25
2023-05-18T13:23:06.188Z,102578.94
2023-05-18T13:26:28.092Z,102591.03
2023-05-18T13:29:51.263Z,102577.94
2023-05-18T13:33:13.347Z,102586.72
2023-05-18T13:36:37.102Z,102581.91
2023-05-18T13:39:59.172Z,102577.09
2023-05-18T13:43:20.732Z,102564.69
2023-05-18T13:46:42.392Z,102572.44
2023-05-18T13:50:04.140Z,102572.53
2023-05-18T13:53:28.520Z,102571.81
2023-05-18T13:56:49.979Z,102558.19
2023-05-18T14:00:13.484Z,102562.88
2023-05-18T14:03:36.681Z,102577.66
2023-05-18T14:06:58.547Z,102559.91
2023-05-18T14:10:22.402Z,102554.84
2023-05-18T14:13:44.707Z,102551.91
2023-05-18T14:17:07.574Z,102551.09
2023-05-18T14:20:31.045Z,102538.31
2023-05-18T14:23:53.156Z,102539.66
2023-05-18T14:27:16.455Z,102545.66
2023-05-18T14:30:38.329Z,102549.06
2023-05-18T14:33:59.512Z,102546.66
2023-05-18T14:37:21.291Z,102538.34
2023-05-18T14:40:42.975Z,102547.94
2023-05-18T14:44:08.615Z,102542.72
2023-05-18T14:47:30.097Z,102549.56
2023-05-18T14:50:51.600Z,102538.50
2023-05-18T14:54:14.039Z,102538.06
2023-05-18T14:57:35.525Z,102539.91
2023-05-18T15:00:58.658Z,102536.50
2023-05-18T15:04:21.865Z,102528.88
2023-05-18T15:07:45.835Z,102534.03
2023-05-18T15:11:07.548Z,102529.81
2023-05-18T15:14:29.929Z,102536.47
2023-05-18T15:17:53.140Z,102535.94
2023-05-18T15:21:15.004Z,102536.91
2023-05-18T15:24:36.904Z,102536.06
2023-05-18T15:27:58.326Z,102519.56
2023-05-18T15:31:20.278Z,102522.28
2023-05-18T15:34:43.305Z,102528.72
2023-05-18T15:38:05.031Z,102517.59
2023-05-18T15:41:54.560Z,102519.88
2023-05-18T15:45:16.103Z,102511.25
2023-05-18T15:48:37.807Z,102508.44
2023-05-18T15:52:01.096Z,102515.88
2023-05-18T15:55:22.531Z,102503.75
2023-05-18T15:58:44.622Z,102507.06
2023-05-18T16:02:06.442Z,102510.09
2023-05-18T16:05:28.179Z,102507.81
2023-05-18T16:08:51.123Z,102511.88
2023-05-18T16:12:13.229Z,102509.75
2023-05-18T16:15:35.929Z,102504.53
2023-05-18T16:18:57.832Z,102504.50
2023-05-18T16:22:19.570Z,102503.03
2023-05-18T16:25:43.226Z,102508.19
2023-05-18T16:29:05.449Z,102503.06
2023-05-18T16:32:27.679Z,102505.09
2023-05-18T16:35:49.155Z,102503.06
2023-05-18T16:39:10.779Z,102510.78
2023-05-18T16:42:34.122Z,102508.41
2023-05-18T16:45:55.787Z,102512.41
2023-05-18T16:49:18.036Z,102505.00
2023-05-18T16:52:39.686Z,102512.31
2023-05-18T16:56:02.286Z,102510.13
2023-05-18T16:59:25.616Z,102510.31
2023-05-18T17:02:47.172Z,102507.03
2023-05-18T17:06:09.142Z,102500.81
2023-05-18T17:09:31.328Z,102498.00
2023-05-18T17:12:53.373Z,102504.06
2023-05-18T17:16:18.765Z,102510.19
2023-05-18T17:19:41.458Z,102508.34
2023-05-18T17:23:03.024Z,102508.22
2023-05-18T17:26:30.282Z,102509.91
2023-05-18T17:29:51.727Z,102500.81
2023-05-18T17:33:15.120Z,102504.91
2023-05-18T17:36:36.977Z,102511.88
2023-05-18T17:39:58.276Z,102510.00
2023-05-18T17:43:20.041Z,102504.72
2023-05-18T17:46:44.662Z,102512.88
2023-05-18T17:50:09.305Z,102506.03
2023-05-18T17:53:31.083Z,102506.13
2023-05-18T17:56:53.100Z,102505.81
2023-05-18T18:00:15.828Z,102507.44
2023-05-18T18:03:38.098Z,102502.88
2023-05-18T18:07:01.708Z,102505.66
2023-05-18T18:10:23.379Z,102511.69
2023-05-18T18:13:45.047Z,102512.50
2023-05-18T18:17:07.072Z,102512.31
2023-05-18T18:20:28.965Z,102509.38
2023-05-18T18:23:52.086Z,102514.69
2023-05-18T18:27:14.279Z,102517.28
2023-05-18T18:30:36.059Z,102530.53
2023-05-18T18:33:57.347Z,102538.56
2023-05-18T18:37:19.154Z,102545.19
2023-05-18T18:40:42.768Z,102546.38
2023-05-18T18:44:04.138Z,102554.22
2023-05-18T18:47:26.214Z,102552.66
2023-05-18T18:50:48.020Z,102561.00
2023-05-18T18:54:09.916Z,102566.38
2023-05-18T18:57:33.817Z,102564.41
2023-05-18T19:00:55.752Z,102566.31
2023-05-18T19:04:18.065Z,102580.22
2023-05-18T19:07:41.203Z,102572.13
2023-05-18T19:11:02.532Z,102575.53
2023-05-18T19:14:25.759Z,102581.59
2023-05-18T19:17:47.323Z,102588.84
2023-05-18T19:21:09.113Z,102592.00
2023-05-18T19:24:31.075Z,102596.75
2023-05-18T19:28:43.340Z,102600.56
2023-05-18T19:32:14.481Z,102612.41
2023-05-18T19:35:36.167Z,102628.72
2023-05-18T19:38:58.031Z,102627.44
2023-05-18T19:42:19.801Z,102627.78
2023-05-18T19:45:42.108Z,102635.28
2023-05-18T19:49:06.664Z,102628.84
2023-05-18T19:52:28.636Z,102625.66
2023-05-18T19:55:55.041Z,102632.97
2023-05-18T19:59:16.811Z,102629.97
2023-05-18T20:02:38.398Z,102628.72
2023-05-18T20:06:01.995Z,102638.16
2023-05-18T20:09:23.860Z,102638.47
2023-05-18T20:12:45.591Z,102640.84
2023-05-18T20:16:08.198Z,102639.34
2023-05-18T20:19:32.670Z,102644.16
2023-05-18T20:22:55.590Z,102649.84
2023-05-18T20:26:17.011Z,102643.94
2023-05-18T20:29:38.737Z,102652.50
2023-05-18T20:33:00.293Z,102651.22
2023-05-18T20:36:22.244Z,102648.00
2023-05-18T20:39:50.706Z,102661.22
2023-05-18T20:43:17.731Z,102671.41
2023-05-18T20:46:42.336Z,102663.38
2023-05-18T20:50:04.871Z,102667.22
2023-05-18T20:53:27.049Z,102673.66
2023-05-18T20:56:51.343Z,102668.69
2023-05-18T21:00:14.452Z,102669.06
2023-05-18T21:03:36.104Z,102664.13
2023-05-18T21:06:57.846Z,102663.66
2023-05-18T21:10:19.111Z,102662.34
2023-05-18T21:13:42.220Z,102658.38
2023-05-18T21:17:03.735Z,102658.66
2023-05-18T21:20:25.613Z,102663.56
2023-05-18T21:23:47.207Z,102666.66
2023-05-18T21:27:09.051Z,102665.22
2023-05-18T21:30:33.013Z,102662.84
2023-05-18T21:33:55.034Z,102657.69
2023-05-18T21:37:16.511Z,102667.94
2023-05-18T21:40:38.616Z,102670.88
2023-05-18T21:44:00.437Z,102662.38
2023-05-18T21:47:23.558Z,102661.19
2023-05-18T21:50:45.699Z,102668.78
2023-05-18T21:54:07.380Z,102668.63
2023-05-18T21:57:29.142Z,102675.50
2023-05-18T22:00:50.880Z,102669.75
2023-05-18T22:04:14.508Z,102665.91
2023-05-18T22:07:36.004Z,102665.41
2023-05-18T22:10:57.569Z,102662.25
2023-05-18T22:14:19.064Z,102660.91
2023-05-18T22:17:41.330Z,102662.22
2023-05-18T22:21:04.738Z,102654.47
2023-05-18T22:24:26.508Z,102665.41
2023-05-18T22:27:48.303Z,102653.22
2023-05-18T22:31:10.298Z,102653.50
2023-05-18T22:34:31.797Z,102661.06
2023-05-18T22:37:56.370Z,102668.50
2023-05-18T22:41:18.750Z,102655.59
2023-05-18T22:44:40.692Z,102658.63
2023-05-18T22:48:02.269Z,102661.56
2023-05-18T22:51:26.269Z,102665.44
2023-05-18T22:54:49.914Z,102656.84
2023-05-18T22:58:11.562Z,102661.56
2023-05-18T23:01:33.336Z,102666.31
2023-05-18T23:04:54.715Z,102662.19
2023-05-18T23:08:16.875Z,102665.88
2023-05-18T23:11:40.971Z,102666.13
2023-05-18T23:15:04.014Z,102664.59
2023-05-18T23:18:26.669Z,102669.06
2023-05-18T23:21:48.318Z,102663.72
2023-05-18T23:25:11.071Z,102654.28
2023-05-18T23:28:34.284Z,102657.19
2023-05-18T23:31:55.762Z,102656.41
2023-05-18T23:35:18.510Z,102652.22
2023-05-18T23:38:41.547Z,102661.38
2023-05-18T23:42:04.872Z,102648.31
2023-05-18T23:45:29.111Z,102646.75
2023-05-18T23:48:52.359Z,102641.69
2023-05-18T23:52:14.652Z,102640.16
2023-05-18T23:55:37.975Z,102634.13
2023-05-18T23:59:01.469Z,102640.44
